Briefing drone pour Lamastre

Rechercher une autre localisation

Conditions de vol :


Nous sommes le : Samedi 05 décembre 2020
Il est 17:14 UTC (18:14 LT)

Lever de soleil : 06:38 UTC (07:38 LT)
Coucher de soleil : 16:26 UTC (17:26 LT)

Météo

L'essentiel des conditions de vol

VIGILANCE MÉTÉO FRANCE - Ardèche (07)
Pas de vigilances particulieres
METAR de LFLU
LFLU 051700Z AUTO VRB02KT 6000 FEW009 OVC190 03/02 Q0997

Date d'émission: 05/12/2020
Heure d'émission: 17:00 UTC
Vent: Variable 2 KT (4 km/h)
Visibilité horizontale: 6000 m
Plafond :
- Peu de nuages à 900ft (274m)
- Couvert à 19000ft (5791m)
Température: 3 °C
Point de rosée: 2 °C
Humidité: 93%
Pression (QNH): 997 hPa
Prévision 24h pour Valence (16 km)
Vent : 177° pour 3 KT (10 km/h)
Temperature Maxi: 7 °C
Temperature Min: 7 °C
Humidité : 66%
Condition : Partiellement nuageux



Warning: count(): Parameter must be an array or an object that implements Countable in /homepages/6/d509196549/htdocs/droneoxygene/briefing.php on line 743
WEBCAM POUR LAMASTRE

Réglementation

Voler en sécurité

CARTES AERONAUTIQUE 1/500.000
CARTES VAC (LFLU)
SUP AIP




Chargement des AIP...
NOTAM (LAMASTRE + Terrain à proximité / FIR )




Chargement des NOTAMS...
CONTACT PREFECTURE 07


Avertissement : Les données mises à disposition sont indicatives. Oxygène Drone ne pourra être tenu responsable de dégâts causés aux biens et aux personnes.